Time;durP1;ratioP1;P1;durP2;ratioP2;P2;SDS_P1;SDS_P2;PMS_P1;PMS_P2;Temp;Humidity;BMP_temperature;BMP_pressure;BME280_temperature;BME280_humidity;BME280_pressure;Samples;Min_cycle;Max_cycle;Signal;HPM_P1;HPM_P2
2022/07/01 00:00:36;;;;;;;10.52;5.90;;;;;;;29.68;43.01;99172.28;4498666;31;33748;-59
2022/07/01 00:03:04;;;;;;;10.50;6.25;;;;;;;29.62;42.91;99179.63;4499115;31;34180;-63
2022/07/01 00:05:32;;;;;;;8.40;5.68;;;;;;;29.53;43.15;99177.53;4498946;31;34611;-59
2022/07/01 00:07:59;;;;;;;8.93;5.55;;;;;;;29.54;43.20;99182.81;4500643;31;32845;-60
2022/07/01 00:10:27;;;;;;;8.90;5.43;;;;;;;29.58;43.01;99181.19;4494983;31;35078;-59
2022/07/01 00:12:55;;;;;;;11.48;6.18;;;;;;;29.48;43.16;99183.81;4498883;31;33978;-62
2022/07/01 00:15:22;;;;;;;9.55;6.05;;;;;;;29.54;43.08;99182.81;4498181;31;35034;-59
2022/07/01 00:17:50;;;;;;;12.02;6.37;;;;;;;29.61;42.86;99182.66;4500393;31;34324;-59
2022/07/01 00:20:18;;;;;;;13.30;6.47;;;;;;;29.54;43.08;99173.72;4498971;31;34138;-62
2022/07/01 00:22:45;;;;;;;13.98;5.50;;;;;;;29.48;43.10;99179.13;4496936;31;33959;-60
2022/07/01 00:25:13;;;;;;;9.27;5.45;;;;;;;29.33;43.60;99178.87;4496224;31;33795;-59
2022/07/01 00:27:41;;;;;;;8.80;5.40;;;;;;;29.32;43.54;99173.62;4491559;31;33221;-62
2022/07/01 00:30:09;;;;;;;9.40;5.65;;;;;;;29.41;43.37;99172.97;4497718;31;33756;-62
2022/07/01 00:32:37;;;;;;;8.45;6.32;;;;;;;29.46;43.08;99181.28;4495834;31;34183;-63
2022/07/01 00:35:05;;;;;;;9.73;6.28;;;;;;;29.34;43.29;99175.06;4496061;31;33672;-63
2022/07/01 00:37:33;;;;;;;11.07;6.03;;;;;;;29.38;43.28;99173.47;4492818;31;33528;-59
2022/07/01 00:40:01;;;;;;;10.15;5.53;;;;;;;29.34;43.24;99175.06;4494001;31;33644;-58
2022/07/01 00:42:28;;;;;;;12.85;5.97;;;;;;;29.31;43.32;99169.19;4491427;31;35091;-59
2022/07/01 00:44:56;;;;;;;16.70;5.93;;;;;;;29.31;43.26;99170.03;4490983;31;35006;-65
2022/07/01 00:47:24;;;;;;;12.30;5.85;;;;;;;29.21;43.34;99173.47;4484870;31;34045;-62
2022/07/01 00:49:52;;;;;;;8.63;5.30;;;;;;;29.24;43.30;99178.44;4483247;32;33819;-63
2022/07/01 00:52:20;;;;;;;10.52;5.82;;;;;;;29.19;43.47;99172.03;4494023;31;32666;-64
2022/07/01 00:54:48;;;;;;;8.20;5.68;;;;;;;29.17;43.47;99174.19;4499820;31;33946;-61
2022/07/01 00:57:15;;;;;;;8.82;6.07;;;;;;;28.97;44.17;99167.22;4498391;31;33206;-61
2022/07/01 00:59:43;;;;;;;9.02;5.53;;;;;;;28.92;44.13;99169.06;4497062;31;33732;-63
2022/07/01 01:02:11;;;;;;;9.68;5.68;;;;;;;28.91;44.14;99172.91;4495966;31;33884;-61
2022/07/01 01:04:38;;;;;;;9.95;6.03;;;;;;;28.91;44.08;99173.72;4499150;31;33830;-63
2022/07/01 01:07:07;;;;;;;10.60;6.70;;;;;;;28.88;44.22;99165.97;4484160;31;33360;-63
2022/07/01 01:09:35;;;;;;;9.80;5.97;;;;;;;28.79;44.41;99171.03;4495651;31;33734;-60
2022/07/01 01:12:03;;;;;;;11.88;5.87;;;;;;;28.84;44.36;99172.22;4491817;31;33771;-66
2022/07/01 01:14:46;;;;;;;12.02;6.12;;;;;;;28.79;44.50;99170.19;4496598;31;34850;-61
2022/07/01 01:17:15;;;;;;;9.90;5.90;;;;;;;28.80;44.55;99174.66;4494463;31;33462;-60
2022/07/01 01:19:43;;;;;;;10.85;5.72;;;;;;;28.83;44.43;99174.16;4483937;31;34434;-60
2022/07/01 01:22:14;;;;;;;10.48;5.35;;;;;;;28.81;44.52;99175.47;4494091;31;33789;-59
2022/07/01 01:24:44;;;;;;;12.35;6.20;;;;;;;28.65;45.02;99174.34;4499795;31;34540;-60
2022/07/01 01:27:12;;;;;;;8.40;5.50;;;;;;;28.69;44.88;99170.00;4496698;31;33600;-59
2022/07/01 01:29:39;;;;;;;11.48;6.12;;;;;;;28.75;44.73;99169.03;4497339;31;34968;-60
2022/07/01 01:32:08;;;;;;;11.68;5.93;;;;;;;28.72;44.79;99164.84;4500235;31;33974;-61
2022/07/01 01:34:37;;;;;;;8.70;6.53;;;;;;;28.72;44.69;99172.28;4499721;31;34923;-60
2022/07/01 01:37:07;;;;;;;10.88;6.25;;;;;;;28.71;44.74;99185.22;4498927;31;33213;-58
2022/07/01 01:39:37;;;;;;;10.43;5.95;;;;;;;28.75;44.63;99185.56;4493787;31;33847;-62
2022/07/01 01:42:05;;;;;;;10.57;6.03;;;;;;;28.74;44.64;99178.37;4499594;31;35193;-60
2022/07/01 01:44:33;;;;;;;7.62;5.28;;;;;;;28.70;44.77;99171.69;4496456;31;34050;-59
2022/07/01 01:47:02;;;;;;;9.13;5.15;;;;;;;28.65;44.90;99177.94;4498949;31;31982;-62
2022/07/01 01:49:30;;;;;;;10.32;5.15;;;;;;;28.63;44.94;99173.75;4498898;31;33893;-62
2022/07/01 01:51:59;;;;;;;8.70;5.82;;;;;;;28.60;45.01;99171.50;4497743;31;34682;-63
2022/07/01 01:54:27;;;;;;;9.18;6.20;;;;;;;28.59;45.11;99175.34;4492974;31;34890;-62
2022/07/01 01:56:55;;;;;;;9.80;5.53;;;;;;;28.49;45.34;99174.06;4498761;31;34700;-60
2022/07/01 01:59:23;;;;;;;8.13;5.65;;;;;;;28.51;45.26;99165.56;4495215;31;32774;-60
2022/07/01 02:01:50;;;;;;;12.65;5.70;;;;;;;28.56;45.17;99163.72;4501091;31;35022;-63
2022/07/01 02:04:18;;;;;;;8.07;5.53;;;;;;;28.50;45.31;99164.69;4500403;31;34877;-60
2022/07/01 02:06:46;;;;;;;12.48;6.30;;;;;;;28.56;45.28;99162.87;4500485;31;33456;-61
2022/07/01 02:09:14;;;;;;;10.88;5.65;;;;;;;28.52;45.39;99159.78;4496708;31;34785;-60
2022/07/01 02:11:42;;;;;;;8.25;5.32;;;;;;;28.51;45.51;99160.06;4492433;31;33976;-59
2022/07/01 02:14:09;;;;;;;11.63;5.57;;;;;;;28.46;45.63;99168.19;4499890;31;33808;-61
2022/07/01 02:16:37;;;;;;;9.98;6.05;;;;;;;28.42;45.70;99169.78;4485382;31;32034;-60
2022/07/01 02:19:05;;;;;;;12.05;5.72;;;;;;;28.19;46.29;99160.50;4497933;31;35112;-60
2022/07/01 02:21:32;;;;;;;10.27;5.55;;;;;;;28.16;46.29;99160.16;4493284;31;34087;-61
2022/07/01 02:24:00;;;;;;;9.15;5.80;;;;;;;28.20;46.19;99159.41;4486167;31;33842;-60
2022/07/01 02:26:28;;;;;;;14.15;6.50;;;;;;;28.23;46.15;99160.84;4497749;31;32869;-60
2022/07/01 02:28:55;;;;;;;8.15;5.85;;;;;;;28.31;45.90;99175.06;4495104;31;34673;-62
2022/07/01 02:31:23;;;;;;;8.85;6.10;;;;;;;28.34;45.81;99180.03;4485356;32;33983;-60
2022/07/01 02:33:51;;;;;;;8.40;5.37;;;;;;;28.31;45.80;99175.06;4495636;31;33933;-60
2022/07/01 02:36:18;;;;;;;12.05;6.22;;;;;;;28.33;45.71;99172.03;4499329;31;33359;-60
2022/07/01 02:38:46;;;;;;;8.25;5.55;;;;;;;28.22;45.99;99175.66;4498074;31;33857;-60
2022/07/01 02:41:13;;;;;;;10.95;5.72;;;;;;;28.22;46.00;99183.91;4498504;31;34108;-59
2022/07/01 02:43:41;;;;;;;12.13;5.93;;;;;;;28.32;45.76;99182.22;4499728;31;35550;-60
2022/07/01 02:46:09;;;;;;;11.10;6.12;;;;;;;28.26;45.87;99187.88;4498249;31;33364;-60
2022/07/01 02:48:37;;;;;;;8.02;5.90;;;;;;;28.04;46.32;99188.50;4499625;31;33616;-61
2022/07/01 02:51:04;;;;;;;9.35;5.12;;;;;;;27.94;46.67;99190.22;4500461;31;34944;-60
2022/07/01 02:53:32;;;;;;;11.02;6.47;;;;;;;27.91;46.89;99185.19;4500449;31;34805;-60
2022/07/01 02:55:59;;;;;;;9.80;5.82;;;;;;;27.99;46.60;99188.38;4498227;31;33737;-60
2022/07/01 02:58:27;;;;;;;8.75;6.10;;;;;;;28.03;46.61;99189.59;4497693;31;33745;-60
2022/07/01 03:00:54;;;;;;;12.18;6.15;;;;;;;28.12;46.41;99186.44;4498517;31;34821;-62
2022/07/01 03:03:22;;;;;;;9.05;5.82;;;;;;;28.06;46.53;99194.63;4499876;31;34700;-60
2022/07/01 03:05:50;;;;;;;12.60;5.93;;;;;;;28.20;46.23;99192.41;4500763;31;34161;-62
2022/07/01 03:08:18;;;;;;;8.77;5.07;;;;;;;28.17;46.37;99190.16;4498925;31;34921;-62
2022/07/01 03:10:45;;;;;;;8.43;5.85;;;;;;;28.22;46.24;99194.91;4494563;31;33786;-59
2022/07/01 03:13:13;;;;;;;9.30;6.18;;;;;;;28.08;46.64;99203.44;4500332;31;34957;-60
2022/07/01 03:15:40;;;;;;;9.27;5.25;;;;;;;28.26;46.06;99196.94;4496165;31;33365;-62
2022/07/01 03:18:08;;;;;;;10.10;6.00;;;;;;;28.20;46.21;99194.34;4496787;31;33597;-61
2022/07/01 03:20:36;;;;;;;8.32;5.65;;;;;;;28.26;46.05;99196.94;4499927;31;33966;-63
2022/07/01 03:23:03;;;;;;;10.40;5.85;;;;;;;28.28;46.03;99202.19;4497823;31;34441;-61
2022/07/01 03:25:31;;;;;;;9.45;5.47;;;;;;;28.33;45.95;99210.56;4497224;31;33124;-60
2022/07/01 03:27:58;;;;;;;10.77;6.03;;;;;;;28.40;45.78;99219.56;4499815;31;33704;-62
2022/07/01 03:30:26;;;;;;;13.35;5.93;;;;;;;28.42;45.86;99222.06;4499079;31;33938;-63
2022/07/01 03:32:54;;;;;;;10.98;5.95;;;;;;;28.53;45.71;99223.94;4499725;31;34970;-63
2022/07/01 03:35:39;;;;;;;9.13;5.47;;;;;;;28.49;45.94;99231.84;4497378;31;34617;-59
2022/07/01 03:38:07;;;;;;;8.80;6.05;;;;;;;28.45;46.02;99233.44;4498408;31;33827;-62
2022/07/01 03:40:35;;;;;;;8.30;6.15;;;;;;;28.55;45.68;99235.56;4499441;31;34364;-64
2022/07/01 03:43:03;;;;;;;9.23;5.35;;;;;;;28.54;45.78;99233.91;4500824;31;33322;-61
2022/07/01 03:45:31;;;;;;;8.23;6.03;;;;;;;28.54;45.91;99236.66;4491221;31;33404;-61
2022/07/01 03:48:00;;;;;;;10.57;6.43;;;;;;;28.49;46.05;99248.38;4494416;31;33877;-61
2022/07/01 03:50:28;;;;;;;11.20;6.55;;;;;;;28.56;46.02;99251.81;4490977;31;32400;-60
2022/07/01 03:55:42;;;;;;;13.70;6.85;;;;;;;28.53;46.33;99260.56;4497293;31;33849;-63
2022/07/01 03:58:10;;;;;;;12.15;6.55;;;;;;;28.61;46.22;99259.34;4498939;31;32572;-60
2022/07/01 04:00:38;;;;;;;12.15;6.87;;;;;;;28.63;46.20;99259.09;4499502;31;35227;-60
2022/07/01 04:03:07;;;;;;;11.30;6.15;;;;;;;28.62;46.22;99260.19;4497753;31;34756;-61
2022/07/01 04:05:36;;;;;;;10.23;6.15;;;;;;;28.67;46.07;99261.13;4497360;31;34588;-62
2022/07/01 04:08:05;;;;;;;10.32;5.82;;;;;;;28.81;45.93;99256.16;4496928;31;33632;-61
2022/07/01 04:10:33;;;;;;;11.52;6.00;;;;;;;28.85;45.80;99257.34;4494323;31;33634;-60
2022/07/01 04:13:01;;;;;;;9.40;6.25;;;;;;;28.89;45.70;99255.78;4499929;31;33734;-62
2022/07/01 04:15:50;;;;;;;11.77;6.18;;;;;;;28.94;45.75;99258.62;4498894;31;33084;-60
2022/07/01 04:18:17;;;;;;;9.63;5.70;;;;;;;29.02;45.62;99252.75;4499445;31;32036;-60
2022/07/01 04:22:32;;;;;;;8.93;5.97;;;;;;;29.09;45.61;99252.59;4496417;31;34144;-62
2022/07/01 04:23:33;;;;;;;11.35;6.50;;;;;;;29.13;45.63;99252.94;4497773;31;34084;-61
2022/07/01 04:26:02;;;;;;;10.38;5.72;;;;;;;29.14;45.83;99258.19;4498585;31;34924;-63
2022/07/01 04:28:57;;;;;;;11.02;7.05;;;;;;;29.35;45.38;99251.12;4492789;31;32428;-62
2022/07/01 04:31:24;;;;;;;10.45;6.72;;;;;;;29.48;45.10;99256.31;4496040;31;34168;-60
2022/07/01 04:33:52;;;;;;;10.45;5.78;;;;;;;29.56;45.06;99254.22;4496885;31;33429;-60
2022/07/01 04:36:20;;;;;;;11.82;6.70;;;;;;;29.64;44.98;99245.56;4497366;31;34497;-62
2022/07/01 04:38:48;;;;;;;9.70;6.32;;;;;;;29.62;45.25;99253.25;4495341;31;33652;-63
2022/07/01 04:44:03;;;;;;;9.90;6.28;;;;;;;29.77;45.06;99242.47;4487385;31;32271;-58
2022/07/01 04:46:31;;;;;;;11.12;6.40;;;;;;;29.82;44.98;99237.00;4486637;31;34560;-62
2022/07/01 04:48:59;;;;;;;12.15;6.72;;;;;;;29.93;44.82;99240.78;4498190;31;35066;-60
2022/07/01 04:51:28;;;;;;;9.85;6.00;;;;;;;29.97;44.73;99236.41;4497947;31;33632;-62
2022/07/01 04:53:56;;;;;;;9.40;5.90;;;;;;;30.06;44.63;99237.66;4497795;31;34618;-60
2022/07/01 04:56:26;;;;;;;8.98;5.87;;;;;;;30.15;44.95;99236.13;4495020;31;32310;-60
2022/07/01 04:58:55;;;;;;;8.48;6.37;;;;;;;30.24;44.94;99239.31;4497761;31;33370;-60
2022/07/01 05:01:23;;;;;;;9.85;6.53;;;;;;;30.36;44.73;99239.19;4494424;31;33694;-60
2022/07/01 05:03:51;;;;;;;8.73;6.28;;;;;;;30.31;44.87;99228.91;4497219;31;34354;-63
2022/07/01 05:06:19;;;;;;;10.75;6.37;;;;;;;30.22;45.50;99238.72;4497125;31;32862;-61
2022/07/01 05:08:48;;;;;;;11.35;6.53;;;;;;;30.31;45.41;99239.97;4498137;31;34782;-60
2022/07/01 05:11:15;;;;;;;10.10;6.68;;;;;;;30.64;44.71;99243.69;4496551;31;35033;-62
2022/07/01 05:13:43;;;;;;;12.07;7.25;;;;;;;30.82;44.30;99251.66;4497269;31;34346;-60
2022/07/01 05:16:11;;;;;;;14.55;7.12;;;;;;;30.98;44.06;99255.44;4495817;31;33814;-64
2022/07/01 05:24:12;;;;;;;11.88;6.32;;;;;;;30.63;44.22;99264.94;4496833;31;33769;-63
2022/07/01 05:26:40;;;;;;;7.95;5.72;;;;;;;30.83;43.84;99269.91;4493324;31;33183;-65
2022/07/01 05:29:08;;;;;;;9.18;6.82;;;;;;;30.92;43.98;99266.69;4496307;31;32424;-60
2022/07/01 05:31:36;;;;;;;11.27;6.12;;;;;;;30.96;44.04;99265.91;4496848;31;35074;-59
2022/07/01 05:34:04;;;;;;;9.50;6.28;;;;;;;31.14;44.78;99267.47;4497804;31;32430;-60
2022/07/01 05:36:31;;;;;;;9.77;6.87;;;;;;;31.26;44.32;99270.88;4495055;31;34248;-59
2022/07/01 05:38:59;;;;;;;11.80;6.07;;;;;;;31.05;44.45;99264.34;4493402;31;33841;-62
2022/07/01 05:41:28;;;;;;;11.68;6.47;;;;;;;31.08;44.80;99272.13;4488676;31;32822;-59
2022/07/01 05:43:55;;;;;;;9.95;6.70;;;;;;;30.67;45.49;99270.78;4496756;31;33672;-63
2022/07/01 05:46:23;;;;;;;11.57;6.35;;;;;;;31.04;45.04;99270.09;4494221;31;33584;-60
2022/07/01 05:48:51;;;;;;;10.85;6.30;;;;;;;31.33;45.33;99270.72;4497134;31;33933;-62
2022/07/01 05:51:18;;;;;;;12.15;6.82;;;;;;;31.19;45.13;99280.50;4495954;31;33998;-61
2022/07/01 05:53:47;;;;;;;13.68;7.55;;;;;;;31.39;44.84;99277.94;4480718;31;33780;-63
2022/07/01 05:56:15;;;;;;;12.25;6.97;;;;;;;31.44;44.94;99282.72;4485748;31;34214;-60
2022/07/01 05:58:43;;;;;;;14.90;7.15;;;;;;;31.57;45.02;99286.97;4489274;31;33294;-62
2022/07/01 06:01:11;;;;;;;15.00;7.30;;;;;;;31.45;45.42;99279.66;4494186;31;32807;-61
2022/07/01 06:03:39;;;;;;;13.88;6.85;;;;;;;31.77;44.29;99287.97;4493522;31;33772;-59
2022/07/01 06:06:06;;;;;;;11.23;7.18;;;;;;;31.55;44.62;99290.00;4492995;31;33720;-62
2022/07/01 06:08:34;;;;;;;13.32;6.97;;;;;;;31.73;43.99;99302.59;4485473;31;33531;-62
2022/07/01 06:11:03;;;;;;;10.27;6.85;;;;;;;31.69;43.73;99299.53;4491172;31;35652;-59
2022/07/01 06:13:31;;;;;;;15.75;8.07;;;;;;;31.82;43.90;99292.72;4495272;31;34166;-64
2022/07/01 06:15:58;;;;;;;12.50;7.18;;;;;;;31.66;44.88;99304.75;4497648;31;33428;-62
2022/07/01 06:18:26;;;;;;;9.35;6.05;;;;;;;31.95;43.14;99297.00;4484989;31;33590;-61
2022/07/01 06:20:54;;;;;;;17.60;8.25;;;;;;;32.10;42.83;99304.56;4495247;31;35296;-60
2022/07/01 06:23:22;;;;;;;12.48;7.07;;;;;;;32.11;42.46;99304.31;4495250;31;33447;-59
2022/07/01 06:25:50;;;;;;;13.43;6.72;;;;;;;32.14;42.43;99311.25;4497216;31;32890;-62
2022/07/01 06:28:17;;;;;;;12.95;7.07;;;;;;;32.00;43.12;99317.22;4483601;31;35043;-60
2022/07/01 06:30:45;;;;;;;10.15;6.15;;;;;;;32.29;43.01;99311.31;4495094;31;33814;-59
2022/07/01 06:33:13;;;;;;;12.73;6.62;;;;;;;32.42;42.08;99308.06;4494691;31;33888;-60
2022/07/01 06:35:41;;;;;;;14.02;7.32;;;;;;;32.32;42.49;99316.31;4499143;31;34104;-62
2022/07/01 06:38:09;;;;;;;13.82;7.70;;;;;;;32.33;43.33;99306.06;4493752;31;32741;-59
2022/07/01 06:40:37;;;;;;;13.48;7.65;;;;;;;32.18;42.71;99321.50;4493903;31;33884;-62
2022/07/01 06:43:04;;;;;;;16.67;7.70;;;;;;;32.43;42.38;99307.03;4496117;31;33498;-63
2022/07/01 06:45:32;;;;;;;13.77;7.40;;;;;;;32.42;42.61;99310.84;4497805;31;33355;-60
2022/07/01 06:48:00;;;;;;;13.07;7.68;;;;;;;32.02;43.18;99300.37;4493026;31;33754;-61
2022/07/01 06:50:28;;;;;;;13.62;7.40;;;;;;;32.32;43.31;99301.66;4490753;31;32448;-63
2022/07/01 06:52:55;;;;;;;14.05;7.37;;;;;;;32.20;42.52;99304.62;4499675;31;32632;-59
2022/07/01 06:55:23;;;;;;;12.40;7.20;;;;;;;32.35;42.94;99312.19;4491000;31;32146;-60
2022/07/01 06:57:50;;;;;;;15.55;6.95;;;;;;;32.47;42.08;99308.13;4496544;31;34698;-59
2022/07/01 07:00:18;;;;;;;13.02;7.12;;;;;;;32.39;42.10;99311.41;4497457;31;32774;-60
2022/07/01 07:02:46;;;;;;;14.40;6.18;;;;;;;32.53;41.43;99313.72;4495947;31;33151;-59
2022/07/01 07:05:13;;;;;;;14.43;6.15;;;;;;;32.77;40.96;99303.84;4495908;31;34233;-59
2022/07/01 07:07:41;;;;;;;11.40;5.43;;;;;;;32.64;40.66;99319.00;4498219;31;32756;-61
2022/07/01 07:10:09;;;;;;;11.90;5.80;;;;;;;32.74;40.21;99304.38;4492836;31;35260;-63
2022/07/01 07:12:36;;;;;;;11.82;5.78;;;;;;;32.26;40.78;99311.84;4495395;31;33602;-59
2022/07/01 07:15:05;;;;;;;12.73;5.90;;;;;;;32.29;40.87;99302.19;4496111;31;33537;-60
2022/07/01 07:17:32;;;;;;;9.45;5.28;;;;;;;32.39;40.81;99305.88;4486218;31;33691;-60
2022/07/01 07:20:00;;;;;;;11.25;5.70;;;;;;;32.34;40.05;99303.06;4486579;31;32637;-64
2022/07/01 07:22:28;;;;;;;14.35;5.65;;;;;;;32.68;40.39;99298.00;4492253;31;33483;-58
2022/07/01 07:24:55;;;;;;;12.93;5.60;;;;;;;32.09;41.22;99297.34;4493201;31;32862;-60
2022/07/01 07:27:23;;;;;;;13.60;6.05;;;;;;;32.56;40.57;99297.38;4496087;31;33958;-59
2022/07/01 07:29:50;;;;;;;11.48;5.32;;;;;;;32.40;40.88;99292.84;4497627;31;33983;-62
2022/07/01 07:32:18;;;;;;;10.32;5.18;;;;;;;32.23;39.70;99296.62;4488651;31;201269;-60
2022/07/01 07:34:46;;;;;;;10.55;4.75;;;;;;;32.27;40.17;99293.34;4495652;31;32961;-64
2022/07/01 07:37:13;;;;;;;11.40;5.18;;;;;;;32.17;40.31;99294.94;4495285;31;34871;-64
2022/07/01 07:39:41;;;;;;;11.52;4.90;;;;;;;32.11;39.75;99297.94;4498488;31;35260;-61
2022/07/01 07:42:09;;;;;;;10.20;5.18;;;;;;;32.61;38.83;99296.56;4495754;31;33440;-60
2022/07/01 07:44:37;;;;;;;11.20;4.90;;;;;;;32.46;40.02;99303.72;4499228;31;34674;-60
2022/07/01 07:47:05;;;;;;;9.38;4.72;;;;;;;32.68;39.15;99300.78;4493376;31;34893;-60
2022/07/01 07:49:32;;;;;;;14.00;4.47;;;;;;;32.85;37.97;99299.72;4497123;31;33994;-62
2022/07/01 07:52:00;;;;;;;12.30;5.10;;;;;;;32.93;38.86;99290.88;4490919;31;32542;-61
2022/07/01 07:54:28;;;;;;;10.88;4.90;;;;;;;32.83;38.97;99299.97;4498818;31;33634;-60
2022/07/01 07:56:55;;;;;;;7.47;4.70;;;;;;;33.16;38.22;99293.19;4496163;31;33648;-60
2022/07/01 07:59:23;;;;;;;11.48;5.18;;;;;;;33.33;37.39;99301.25;4497716;31;34253;-60
2022/07/01 08:01:51;;;;;;;11.20;5.20;;;;;;;33.27;38.10;99305.13;4497128;31;33396;-62
2022/07/01 08:04:19;;;;;;;11.95;4.90;;;;;;;33.01;37.80;99301.47;4497479;31;32162;-64
2022/07/01 08:06:46;;;;;;;9.10;4.62;;;;;;;33.14;37.30;99306.50;4495971;31;32681;-62
2022/07/01 08:09:14;;;;;;;9.98;4.60;;;;;;;33.04;37.23;99308.41;4496458;31;33653;-63
2022/07/01 08:11:42;;;;;;;9.38;4.35;;;;;;;33.43;37.02;99311.53;4495641;31;33606;-63
2022/07/01 08:14:09;;;;;;;8.85;4.70;;;;;;;33.63;37.29;99317.13;4499245;31;32192;-59
2022/07/01 08:16:37;;;;;;;11.52;4.60;;;;;;;33.20;37.64;99312.88;4485497;31;33546;-63
2022/07/01 08:19:04;;;;;;;9.45;3.97;;;;;;;33.12;37.54;99316.19;4497699;31;34967;-59
2022/07/01 08:21:32;;;;;;;9.77;4.37;;;;;;;33.03;36.74;99315.03;4498160;31;32706;-63
2022/07/01 08:24:00;;;;;;;12.25;4.70;;;;;;;33.39;36.50;99311.25;4493154;31;33181;-60
2022/07/01 08:26:27;;;;;;;11.15;4.57;;;;;;;33.64;35.91;99306.84;4483663;31;33842;-60
2022/07/01 08:28:55;;;;;;;11.43;4.40;;;;;;;33.16;36.68;99309.84;4487214;31;32651;-62
2022/07/01 08:31:23;;;;;;;8.52;4.03;;;;;;;33.60;36.15;99317.66;4491416;31;32673;-60
2022/07/01 08:33:52;;;;;;;12.30;4.53;;;;;;;33.76;35.26;99303.81;4486027;31;33774;-64
2022/07/01 08:36:20;;;;;;;7.75;3.92;;;;;;;33.60;35.00;99319.62;4486007;31;34636;-61
2022/07/01 08:38:49;;;;;;;8.00;3.95;;;;;;;33.40;36.14;99315.69;4496610;31;32340;-60
2022/07/01 08:41:18;;;;;;;13.62;4.57;;;;;;;34.00;34.60;99302.13;4498030;31;33564;-60
2022/07/01 08:43:46;;;;;;;10.32;4.12;;;;;;;34.12;34.76;99306.56;4495988;31;34407;-60
2022/07/01 08:46:14;;;;;;;10.38;4.32;;;;;;;34.01;34.87;99312.16;4496846;31;35408;-60
2022/07/01 08:48:45;;;;;;;10.15;3.95;;;;;;;33.70;35.16;99313.25;4497199;31;34883;-59
2022/07/01 08:51:12;;;;;;;10.07;4.30;;;;;;;34.00;34.30;99306.87;4485108;31;33194;-60
2022/07/01 08:53:40;;;;;;;12.93;4.32;;;;;;;34.32;34.21;99303.78;4490766;31;33475;-62
2022/07/01 08:58:55;;;;;;;12.20;4.40;;;;;;;33.95;34.42;99307.69;4498672;31;34056;-60
2022/07/01 09:01:25;;;;;;;11.23;4.10;;;;;;;33.65;34.80;99310.47;4493955;31;34469;-61
2022/07/01 09:04:13;;;;;;;11.18;4.10;;;;;;;34.08;33.05;99298.81;4497089;31;34394;-62
2022/07/01 09:06:41;;;;;;;8.70;4.10;;;;;;;34.01;34.17;99302.97;4499415;31;32612;-59
2022/07/01 09:09:12;;;;;;;9.90;3.80;;;;;;;34.48;33.87;99291.50;4489524;31;32685;-63
2022/07/01 09:11:53;;;;;;;10.18;3.50;;;;;;;34.20;32.36;99306.03;4499131;31;33979;-63
2022/07/01 09:14:25;;;;;;;8.82;3.40;;;;;;;34.50;32.17;99299.53;4491675;31;33410;-62
2022/07/01 09:16:57;;;;;;;8.32;3.42;;;;;;;34.95;30.84;99289.38;4476917;31;34030;-59
2022/07/01 09:19:27;;;;;;;8.38;3.97;;;;;;;35.35;31.33;99298.63;4496379;31;35074;-63
2022/07/01 09:21:57;;;;;;;8.63;3.75;;;;;;;34.83;30.96;99298.03;4494392;31;32464;-61
2022/07/01 09:24:44;;;;;;;10.32;3.72;;;;;;;34.62;31.19;99290.94;4491168;31;33126;-59
2022/07/01 09:27:13;;;;;;;9.10;3.45;;;;;;;34.57;31.89;99282.59;4497237;31;33660;-59
2022/07/01 09:29:43;;;;;;;9.68;3.72;;;;;;;34.61;31.27;99292.03;4496941;31;34271;-59
2022/07/01 09:32:13;;;;;;;9.50;3.85;;;;;;;34.87;30.98;99287.22;4499117;31;35076;-60
2022/07/01 09:34:43;;;;;;;9.90;3.45;;;;;;;34.93;30.72;99278.56;4484714;31;31888;-60
2022/07/01 09:37:14;;;;;;;7.35;3.28;;;;;;;34.81;30.05;99291.94;4483787;32;33732;-59
2022/07/01 09:39:47;;;;;;;8.95;3.87;;;;;;;34.99;30.66;99293.22;4483200;31;34166;-62
2022/07/01 09:42:18;;;;;;;10.15;3.62;;;;;;;35.42;30.55;99288.81;4495322;31;33895;-61
2022/07/01 09:45:07;;;;;;;8.88;3.65;;;;;;;34.72;30.42;99293.66;4491590;31;33706;-59
2022/07/01 09:47:36;;;;;;;9.30;3.90;;;;;;;35.54;29.83;99287.63;4499647;31;32897;-58
2022/07/01 09:50:05;;;;;;;8.45;3.72;;;;;;;35.97;29.45;99290.63;4498019;31;34137;-60
2022/07/01 09:52:33;;;;;;;12.73;4.10;;;;;;;35.80;29.51;99291.91;4499890;31;33970;-59
2022/07/01 09:55:07;;;;;;;8.30;3.92;;;;;;;36.44;29.16;99287.09;4490801;31;31840;-59
2022/07/01 09:57:35;;;;;;;12.18;4.05;;;;;;;36.11;29.54;99286.88;4494820;31;34333;-59
2022/07/01 10:00:04;;;;;;;9.27;3.90;;;;;;;36.24;29.47;99282.56;4483312;31;33425;-63
2022/07/01 10:02:33;;;;;;;8.70;3.15;;;;;;;35.80;29.95;99283.53;4500287;31;33878;-58
2022/07/01 10:05:15;;;;;;;9.55;3.97;;;;;;;35.58;29.87;99274.81;4489238;31;34269;-61
2022/07/01 10:08:07;;;;;;;6.47;3.40;;;;;;;36.52;28.22;99277.28;4471281;32;32545;-59
2022/07/01 10:10:59;;;;;;;9.63;4.25;;;;;;;36.97;28.58;99277.78;4487362;31;35260;-62
2022/07/01 10:13:27;;;;;;;11.45;4.05;;;;;;;37.02;27.69;99266.59;4496069;31;32666;-60
2022/07/01 10:15:56;;;;;;;11.32;3.12;;;;;;;36.36;28.79;99269.06;4481237;32;32410;-59
2022/07/01 10:18:25;;;;;;;7.87;3.62;;;;;;;36.45;28.13;99263.66;4485113;31;32470;-59
2022/07/01 10:20:55;;;;;;;7.75;3.65;;;;;;;36.45;27.15;99271.19;4489694;31;35175;-63
2022/07/01 10:23:27;;;;;;;9.90;3.70;;;;;;;37.23;26.79;99259.56;4499099;31;32415;-59
2022/07/01 10:26:02;;;;;;;9.10;3.33;;;;;;;37.24;27.07;99265.97;4485355;31;32247;-61
2022/07/01 10:28:42;;;;;;;8.65;3.22;;;;;;;36.62;26.16;99268.78;4496682;31;33754;-60
2022/07/01 10:31:15;;;;;;;9.20;3.22;;;;;;;36.38;27.43;99272.38;4494756;31;33636;-59
2022/07/01 10:33:47;;;;;;;9.87;3.50;;;;;;;36.36;26.64;99263.47;4494101;31;33832;-61
2022/07/01 10:36:22;;;;;;;10.35;3.62;;;;;;;36.87;26.00;99261.22;4493381;31;31104;-60
2022/07/01 10:39:03;;;;;;;9.05;3.42;;;;;;;37.03;25.19;99259.88;4504451;31;32536;-63
2022/07/01 10:41:36;;;;;;;8.68;3.37;;;;;;;36.63;26.63;99262.09;4495885;31;35208;-59
2022/07/01 10:44:06;;;;;;;7.93;3.83;;;;;;;36.59;26.66;99258.22;4498596;31;34682;-62
2022/07/01 10:46:41;;;;;;;8.00;3.78;;;;;;;36.79;26.81;99263.53;4487106;31;31891;-61
2022/07/01 10:49:13;;;;;;;7.80;3.37;;;;;;;36.87;26.39;99262.03;4501240;31;33929;-62
2022/07/01 10:51:51;;;;;;;11.65;3.50;;;;;;;36.78;25.65;99258.25;4490404;31;33725;-59
2022/07/01 10:54:42;;;;;;;8.27;3.20;;;;;;;36.74;26.20;99260.81;4495065;31;34009;-62
2022/07/01 10:57:19;;;;;;;7.82;3.10;;;;;;;36.70;26.95;99258.94;4494775;31;32531;-61
2022/07/01 11:00:00;;;;;;;11.02;3.90;;;;;;;37.04;26.92;99250.38;4494840;31;33588;-61
2022/07/01 11:02:30;;;;;;;9.18;3.70;;;;;;;36.91;27.24;99262.25;4494176;31;34368;-59
2022/07/01 11:05:01;;;;;;;10.70;3.70;;;;;;;36.39;27.70;99260.09;4496251;31;35557;-60
2022/07/01 11:07:31;;;;;;;14.63;3.60;;;;;;;36.72;27.37;99265.84;4500005;31;33090;-60
2022/07/01 11:10:05;;;;;;;9.00;4.10;;;;;;;36.31;27.98;99252.41;4500593;31;34038;-60
2022/07/01 11:12:33;;;;;;;10.05;3.53;;;;;;;36.89;27.37;99256.16;4498498;31;35069;-59
2022/07/01 11:15:05;;;;;;;8.73;3.70;;;;;;;36.48;28.52;99253.87;4497014;31;33499;-59
2022/07/01 11:17:34;;;;;;;8.85;3.30;;;;;;;36.61;26.91;99250.41;4488016;31;32083;-59
2022/07/01 11:20:02;;;;;;;10.00;3.72;;;;;;;36.78;27.48;99253.50;4496774;31;34975;-62
2022/07/01 11:22:32;;;;;;;11.70;3.92;;;;;;;36.46;27.50;99256.13;4490056;31;32516;-63
2022/07/01 11:25:03;;;;;;;8.85;4.18;;;;;;;36.12;27.45;99249.56;4491995;31;32778;-63
2022/07/01 11:27:32;;;;;;;8.45;3.25;;;;;;;36.37;27.55;99244.78;4500470;31;34613;-59
2022/07/01 11:30:05;;;;;;;14.70;3.72;;;;;;;36.74;27.03;99237.69;4497349;31;34038;-62
2022/07/01 11:32:35;;;;;;;8.32;3.78;;;;;;;36.09;27.18;99235.41;4493409;31;34106;-60
2022/07/01 11:39:21;;;;;;;12.75;4.68;;;;;;;36.53;27.08;99228.75;4494901;31;33650;-59
2022/07/01 11:40:57;;;;;;;9.57;3.58;;;;;;;36.88;26.45;99210.69;4493998;31;33683;-65
2022/07/01 11:43:28;;;;;;;11.40;3.78;;;;;;;36.90;25.95;99208.44;4495216;31;34837;-60
2022/07/01 11:45:59;;;;;;;8.77;3.65;;;;;;;36.74;24.88;99218.16;4491754;31;33551;-59
2022/07/01 11:48:51;;;;;;;12.75;3.72;;;;;;;37.28;25.69;99214.84;4500626;31;34195;-60
2022/07/01 11:51:22;;;;;;;11.30;3.83;;;;;;;37.43;25.48;99207.34;4497097;31;33728;-61
2022/07/01 11:53:52;;;;;;;10.45;3.92;;;;;;;37.95;24.69;99202.59;4494135;31;34053;-60
2022/07/01 11:56:35;;;;;;;10.93;4.18;;;;;;;37.63;24.94;99206.22;4496053;31;32772;-61